createdAt,value
2022-08-10T00:00:36.034Z,20.10
2022-08-10T00:03:03.088Z,20.00
2022-08-10T00:05:43.170Z,20.00
2022-08-10T00:08:22.543Z,19.90
2022-08-10T00:10:53.494Z,19.90
2022-08-10T00:13:21.048Z,19.80
2022-08-10T00:15:53.448Z,19.80
2022-08-10T00:18:35.125Z,19.80
2022-08-10T00:21:05.340Z,19.70
2022-08-10T00:23:32.630Z,19.70
2022-08-10T00:25:59.564Z,19.70
2022-08-10T00:28:26.525Z,19.70
2022-08-10T00:30:53.702Z,19.60
2022-08-10T00:33:21.090Z,19.60
2022-08-10T00:35:48.836Z,19.60
2022-08-10T00:38:15.804Z,19.60
2022-08-10T00:40:42.835Z,19.50
2022-08-10T00:43:09.890Z,19.50
2022-08-10T00:45:37.045Z,19.40
2022-08-10T00:48:04.429Z,19.40
2022-08-10T00:50:34.195Z,19.40
2022-08-10T00:53:05.232Z,19.40
2022-08-10T00:55:32.502Z,19.30
2022-08-10T00:58:19.511Z,19.30
2022-08-10T01:00:47.847Z,19.30
2022-08-10T01:03:15.469Z,19.30
2022-08-10T01:06:20.671Z,19.30
2022-08-10T01:09:06.586Z,19.30
2022-08-10T01:12:38.064Z,19.20
2022-08-10T01:14:49.640Z,19.20
2022-08-10T01:17:16.692Z,19.10
2022-08-10T01:19:46.560Z,19.10
2022-08-10T01:22:16.302Z,19.10
2022-08-10T01:25:01.558Z,19.10
2022-08-10T01:27:40.697Z,19.00
2022-08-10T01:30:08.037Z,19.00
2022-08-10T01:32:50.223Z,19.00
2022-08-10T01:35:19.961Z,18.90
2022-08-10T01:37:52.233Z,18.90
2022-08-10T01:40:23.122Z,18.90
2022-08-10T01:42:50.558Z,18.90
2022-08-10T01:45:18.647Z,18.90
2022-08-10T01:48:06.365Z,18.80
2022-08-10T01:50:59.722Z,18.80
2022-08-10T01:53:40.855Z,18.80
2022-08-10T01:56:10.989Z,18.80
2022-08-10T01:58:38.640Z,18.80
2022-08-10T02:01:07.544Z,18.80
2022-08-10T02:03:35.793Z,18.70
2022-08-10T02:06:24.297Z,18.80
2022-08-10T02:09:05.698Z,18.70
2022-08-10T02:12:05.251Z,18.70
2022-08-10T02:14:22.759Z,18.60
2022-08-10T02:16:50.725Z,18.60
2022-08-10T02:19:18.747Z,18.60
2022-08-10T02:22:37.440Z,18.50
2022-08-10T02:24:34.078Z,18.50
2022-08-10T02:27:00.940Z,18.50
2022-08-10T02:29:30.269Z,18.50
2022-08-10T02:31:57.243Z,18.50
2022-08-10T02:34:24.938Z,18.50
2022-08-10T02:36:53.958Z,18.40
2022-08-10T02:39:21.890Z,18.40
2022-08-10T02:45:01.340Z,18.40
2022-08-10T02:45:20.986Z,18.40
2022-08-10T02:47:58.074Z,18.40
2022-08-10T02:50:25.030Z,18.30
2022-08-10T02:52:57.339Z,18.30
2022-08-10T02:55:32.567Z,18.30
2022-08-10T02:58:16.923Z,18.30
2022-08-10T03:00:49.880Z,18.30
2022-08-10T03:03:25.148Z,18.30
2022-08-10T03:05:57.021Z,18.20
2022-08-10T03:08:26.053Z,18.20
2022-08-10T03:10:54.927Z,18.20
2022-08-10T03:13:22.531Z,18.20
2022-08-10T03:15:50.385Z,18.20
2022-08-10T03:18:17.950Z,18.10
2022-08-10T03:20:45.262Z,18.10
2022-08-10T03:23:17.623Z,18.10
2022-08-10T03:25:53.727Z,18.10
2022-08-10T03:28:26.336Z,18.10
2022-08-10T03:30:53.847Z,18.10
2022-08-10T03:33:22.229Z,18.10
2022-08-10T03:36:40.241Z,18.10
2022-08-10T03:38:36.971Z,18.00
2022-08-10T03:41:05.255Z,18.00
2022-08-10T03:43:34.709Z,18.00
2022-08-10T03:46:05.607Z,18.00
2022-08-10T03:48:48.477Z,18.00
2022-08-10T03:51:17.464Z,18.00
2022-08-10T03:54:05.426Z,18.00
2022-08-10T03:56:33.058Z,17.90
2022-08-10T03:59:00.864Z,17.90
2022-08-10T04:02:43.693Z,17.90
2022-08-10T04:04:20.876Z,17.90
2022-08-10T04:06:54.634Z,17.90
2022-08-10T04:09:42.859Z,17.90
2022-08-10T04:12:16.339Z,17.90
2022-08-10T04:14:50.965Z,17.90
2022-08-10T04:17:56.978Z,17.90
2022-08-10T04:20:10.797Z,17.80
2022-08-10T04:22:38.136Z,17.80
2022-08-10T04:25:05.557Z,17.80
2022-08-10T04:27:32.560Z,17.80
2022-08-10T04:29:59.793Z,17.80
2022-08-10T04:32:28.022Z,17.80
2022-08-10T04:34:55.583Z,17.80
2022-08-10T04:37:23.425Z,17.80
2022-08-10T04:39:50.767Z,17.80
2022-08-10T04:42:18.435Z,17.80
2022-08-10T04:44:46.731Z,17.80
2022-08-10T04:47:13.582Z,17.80
2022-08-10T04:49:55.976Z,17.80
2022-08-10T04:52:25.250Z,17.80
2022-08-10T04:54:52.313Z,17.80
2022-08-10T04:57:19.935Z,17.80
2022-08-10T04:59:46.769Z,17.80
2022-08-10T05:02:31.417Z,17.80
2022-08-10T05:04:59.327Z,17.80
2022-08-10T05:07:26.371Z,17.80
2022-08-10T05:10:02.996Z,17.80
2022-08-10T05:12:35.911Z,17.80
2022-08-10T05:15:08.131Z,17.80
2022-08-10T05:17:36.115Z,17.80
2022-08-10T05:20:07.092Z,17.90
2022-08-10T05:22:39.477Z,17.90
2022-08-10T05:25:08.858Z,17.90
2022-08-10T05:27:36.005Z,17.90
2022-08-10T05:30:04.724Z,17.90
2022-08-10T05:32:55.219Z,17.90
2022-08-10T05:35:20.309Z,17.90
2022-08-10T05:38:10.158Z,17.90
2022-08-10T05:40:46.142Z,18.00
2022-08-10T05:43:18.778Z,18.00
2022-08-10T05:46:19.076Z,18.00
2022-08-10T05:48:54.899Z,18.10
2022-08-10T05:51:21.805Z,18.10
2022-08-10T05:54:02.863Z,18.10
2022-08-10T05:56:55.642Z,18.10
2022-08-10T06:00:33.148Z,18.20
2022-08-10T06:02:33.485Z,18.20
2022-08-10T06:04:57.195Z,18.30
2022-08-10T06:07:27.480Z,18.30
2022-08-10T06:09:59.565Z,18.30
2022-08-10T06:12:37.555Z,18.40
2022-08-10T06:15:21.345Z,18.40
2022-08-10T06:17:59.043Z,18.40
2022-08-10T06:20:35.363Z,18.50
2022-08-10T06:23:04.133Z,18.50
2022-08-10T06:26:10.065Z,18.50
2022-08-10T06:28:18.720Z,18.50
2022-08-10T06:30:47.257Z,18.50
2022-08-10T06:33:14.770Z,18.60
2022-08-10T06:35:42.423Z,18.60
2022-08-10T06:38:09.651Z,18.60
2022-08-10T06:40:38.367Z,18.70
2022-08-10T06:43:06.679Z,18.70
2022-08-10T06:45:37.212Z,18.80
2022-08-10T06:48:21.104Z,18.80
2022-08-10T06:50:58.751Z,18.90
2022-08-10T06:53:53.434Z,18.90
2022-08-10T06:56:20.039Z,19.00
2022-08-10T06:59:21.332Z,19.10
2022-08-10T07:01:58.580Z,19.20
2022-08-10T07:04:32.258Z,19.20
2022-08-10T07:07:05.354Z,19.30
2022-08-10T07:09:33.399Z,19.40
2022-08-10T07:12:07.776Z,19.50
2022-08-10T07:14:40.785Z,19.60
2022-08-10T07:17:15.869Z,19.60
2022-08-10T07:19:50.444Z,19.80
2022-08-10T07:23:26.890Z,19.80
2022-08-10T07:25:07.856Z,19.90
2022-08-10T07:27:58.345Z,20.00
2022-08-10T07:30:22.192Z,20.10
2022-08-10T07:32:51.026Z,20.20
2022-08-10T07:35:18.957Z,20.30
2022-08-10T07:37:49.556Z,20.40
2022-08-10T07:40:19.861Z,20.40
2022-08-10T07:42:52.314Z,20.50
2022-08-10T07:45:19.406Z,20.60
2022-08-10T07:47:55.020Z,20.60
2022-08-10T07:50:23.067Z,20.70
2022-08-10T07:52:51.820Z,20.80
2022-08-10T07:56:02.142Z,20.80
2022-08-10T07:58:07.743Z,20.90
2022-08-10T08:00:35.288Z,21.00
2022-08-10T08:03:03.268Z,21.10
2022-08-10T08:05:57.457Z,21.10
2022-08-10T08:08:18.261Z,21.20
2022-08-10T08:10:45.687Z,21.30
2022-08-10T08:13:13.218Z,21.30
2022-08-10T08:16:17.901Z,21.40
2022-08-10T08:18:28.904Z,21.50
2022-08-10T08:20:56.036Z,21.50
2022-08-10T08:24:05.200Z,21.60
2022-08-10T08:26:15.510Z,21.70
2022-08-10T08:28:43.611Z,21.80
2022-08-10T08:31:10.771Z,21.80
2022-08-10T08:33:41.954Z,21.90
2022-08-10T08:36:11.110Z,22.00
2022-08-10T08:38:38.339Z,22.20
2022-08-10T08:41:28.697Z,22.20
2022-08-10T08:44:01.970Z,22.30
2022-08-10T08:46:39.617Z,22.40
2022-08-10T08:49:06.796Z,22.50
2022-08-10T08:52:09.357Z,22.60
2022-08-10T08:54:48.379Z,22.60
2022-08-10T08:57:49.074Z,22.80
2022-08-10T09:00:06.075Z,22.80
2022-08-10T09:02:43.906Z,22.90
2022-08-10T09:05:31.353Z,23.00
2022-08-10T09:08:21.562Z,23.10
2022-08-10T09:10:54.837Z,23.20
2022-08-10T09:13:29.727Z,23.30
2022-08-10T09:16:02.807Z,23.30
2022-08-10T09:18:51.975Z,23.40
2022-08-10T09:21:28.532Z,23.50
2022-08-10T09:24:22.018Z,23.60
2022-08-10T09:26:50.331Z,23.60
2022-08-10T09:29:25.649Z,23.70
2022-08-10T09:36:19.794Z,23.90
2022-08-10T09:36:19.794Z,24.00
2022-08-10T09:38:01.780Z,24.20
2022-08-10T09:41:00.448Z,24.50
2022-08-10T09:43:36.542Z,24.70
2022-08-10T09:46:06.556Z,25.10
2022-08-10T09:48:41.878Z,25.70
2022-08-10T09:54:15.007Z,27.30
2022-08-10T09:57:02.999Z,28.40
2022-08-10T10:00:00.095Z,29.20
2022-08-10T10:02:49.044Z,30.10
2022-08-10T10:05:25.481Z,31.00
2022-08-10T10:07:56.721Z,31.80
2022-08-10T10:10:27.362Z,32.40
2022-08-10T10:13:05.594Z,32.90
2022-08-10T10:15:43.578Z,33.50
2022-08-10T10:18:11.691Z,34.10
2022-08-10T10:20:57.596Z,34.70
2022-08-10T10:23:55.265Z,35.20
2022-08-10T10:26:30.093Z,35.60
2022-08-10T10:31:50.729Z,36.40
2022-08-10T10:34:58.736Z,36.80
2022-08-10T10:38:01.128Z,37.10
2022-08-10T10:40:14.662Z,37.50
2022-08-10T10:42:45.525Z,37.80
2022-08-10T10:45:15.611Z,38.00
2022-08-10T10:47:48.798Z,38.10
2022-08-10T10:50:19.509Z,38.40
2022-08-10T10:53:05.079Z,38.60
2022-08-10T10:56:15.516Z,38.70
2022-08-10T10:58:28.302Z,39.00
2022-08-10T11:01:07.632Z,39.20
2022-08-10T11:03:36.044Z,39.40
2022-08-10T11:06:23.593Z,39.50
2022-08-10T11:09:00.458Z,39.60
2022-08-10T11:12:00.162Z,39.80
2022-08-10T11:14:30.253Z,40.00
2022-08-10T11:17:00.527Z,40.20
2022-08-10T11:20:01.327Z,40.40
2022-08-10T11:22:30.431Z,40.70
2022-08-10T11:25:06.979Z,40.80
2022-08-10T11:27:42.082Z,41.00
2022-08-10T11:30:12.790Z,41.10
2022-08-10T11:32:51.794Z,41.20
2022-08-10T11:35:34.964Z,41.40
2022-08-10T11:38:28.645Z,41.40
2022-08-10T11:42:05.514Z,41.40
2022-08-10T11:44:12.343Z,41.50
2022-08-10T11:46:53.980Z,41.60
2022-08-10T11:49:38.077Z,41.70
2022-08-10T11:52:16.758Z,41.70
2022-08-10T11:54:47.193Z,41.90
2022-08-10T11:57:18.630Z,42.00
2022-08-10T11:59:57.850Z,42.10
2022-08-10T12:02:29.653Z,42.10
2022-08-10T12:05:15.492Z,42.10
2022-08-10T12:10:07.804Z,42.00
2022-08-10T12:10:31.614Z,42.00
2022-08-10T12:13:07.732Z,42.10
2022-08-10T12:15:55.921Z,42.10
2022-08-10T12:18:32.768Z,42.20
2022-08-10T12:21:06.986Z,42.30
2022-08-10T12:23:39.340Z,42.40
2022-08-10T12:26:19.306Z,42.50
2022-08-10T12:29:08.934Z,42.50
2022-08-10T12:31:41.321Z,42.60
2022-08-10T12:34:10.195Z,42.60
2022-08-10T12:36:42.345Z,42.80
2022-08-10T12:39:30.352Z,42.90
2022-08-10T12:42:02.962Z,43.00
2022-08-10T12:44:42.250Z,43.00
2022-08-10T12:47:14.504Z,42.90
2022-08-10T12:50:29.321Z,42.90
2022-08-10T12:53:13.809Z,42.80
2022-08-10T12:55:41.592Z,42.70
2022-08-10T12:58:58.144Z,42.70
2022-08-10T13:01:16.226Z,42.70
2022-08-10T13:04:20.822Z,42.70
2022-08-10T13:06:46.745Z,42.70
2022-08-10T13:09:14.992Z,42.70
2022-08-10T13:12:39.414Z,42.60
2022-08-10T13:15:25.446Z,42.50
2022-08-10T13:18:18.278Z,42.40
2022-08-10T13:20:54.969Z,42.30
2022-08-10T13:23:25.046Z,42.20
2022-08-10T13:25:52.375Z,42.10
2022-08-10T13:28:36.542Z,42.00
2022-08-10T13:31:07.301Z,41.90
2022-08-10T13:34:39.192Z,41.70
2022-08-10T13:36:27.979Z,41.50
2022-08-10T13:38:57.198Z,41.20
2022-08-10T13:41:29.792Z,40.90
2022-08-10T13:43:58.273Z,40.50
2022-08-10T13:46:25.621Z,40.20
2022-08-10T13:49:00.427Z,39.80
2022-08-10T13:51:57.608Z,39.40
2022-08-10T13:54:16.798Z,39.00
2022-08-10T13:56:44.891Z,38.60
2022-08-10T13:59:16.341Z,38.30
2022-08-10T14:01:50.905Z,37.90
2022-08-10T14:04:18.913Z,37.60
2022-08-10T14:07:04.611Z,37.40
2022-08-10T14:09:32.704Z,37.20
2022-08-10T14:12:00.906Z,37.00
2022-08-10T14:14:30.666Z,36.70
2022-08-10T14:16:58.560Z,36.60
2022-08-10T14:19:32.950Z,36.40
2022-08-10T14:22:00.814Z,36.20
2022-08-10T14:24:31.633Z,36.00
2022-08-10T14:27:05.065Z,35.80
2022-08-10T14:29:33.649Z,35.60
2022-08-10T14:32:02.420Z,35.40
2022-08-10T14:36:19.444Z,35.30
2022-08-10T14:37:37.531Z,35.10
2022-08-10T14:40:09.571Z,35.00
2022-08-10T14:42:45.885Z,34.80
2022-08-10T14:45:24.030Z,34.70
2022-08-10T14:47:59.635Z,34.60
2022-08-10T14:50:32.377Z,34.50
2022-08-10T14:53:27.113Z,34.40
2022-08-10T14:56:03.644Z,34.20
2022-08-10T14:58:33.558Z,34.10
2022-08-10T15:01:01.983Z,33.90
2022-08-10T15:04:02.432Z,33.80
2022-08-10T15:06:21.246Z,33.70
2022-08-10T15:09:27.198Z,33.60
2022-08-10T15:12:15.900Z,33.40
2022-08-10T15:14:46.060Z,33.30
2022-08-10T15:17:17.212Z,33.10
2022-08-10T15:20:02.423Z,32.90
2022-08-10T15:22:37.522Z,32.70
2022-08-10T15:25:18.363Z,32.60
2022-08-10T15:27:54.416Z,32.40
2022-08-10T15:30:31.601Z,32.30
2022-08-10T15:33:21.238Z,32.20
2022-08-10T15:36:26.061Z,32.00
2022-08-10T15:39:04.910Z,31.80
2022-08-10T15:41:59.290Z,31.70
2022-08-10T15:44:34.690Z,31.60
2022-08-10T15:47:04.502Z,31.50
2022-08-10T15:49:36.033Z,31.40
2022-08-10T15:52:04.319Z,31.20
2022-08-10T15:54:39.038Z,31.10
2022-08-10T15:57:11.277Z,31.00
2022-08-10T15:59:43.422Z,30.90
2022-08-10T16:02:17.565Z,30.80
2022-08-10T16:04:53.655Z,30.70
2022-08-10T16:07:24.093Z,30.60
2022-08-10T16:10:25.534Z,30.50
2022-08-10T16:13:50.994Z,30.50
2022-08-10T16:15:54.019Z,30.40
2022-08-10T16:18:25.632Z,30.30
2022-08-10T16:20:55.495Z,30.20
2022-08-10T16:23:27.209Z,30.20
2022-08-10T16:25:59.289Z,30.10
2022-08-10T16:28:32.104Z,30.10
2022-08-10T16:31:04.656Z,30.00
2022-08-10T16:33:54.048Z,29.90
2022-08-10T16:36:21.276Z,29.90
2022-08-10T16:38:53.200Z,29.80
2022-08-10T16:42:03.979Z,29.70
2022-08-10T16:44:15.835Z,29.60
2022-08-10T16:46:45.200Z,29.60
2022-08-10T16:49:13.851Z,29.50
2022-08-10T16:51:44.973Z,29.40
2022-08-10T16:54:14.626Z,29.40
2022-08-10T16:56:48.944Z,29.40
2022-08-10T16:59:21.123Z,29.30
2022-08-10T17:01:54.258Z,29.30
2022-08-10T17:04:22.473Z,29.20
2022-08-10T17:06:56.115Z,29.20
2022-08-10T17:09:29.487Z,29.20
2022-08-10T17:11:58.390Z,29.10
2022-08-10T17:14:27.399Z,29.10
2022-08-10T17:17:00.592Z,29.10
2022-08-10T17:19:30.022Z,29.10
2022-08-10T17:21:58.129Z,29.00
2022-08-10T17:24:30.376Z,28.90
2022-08-10T17:26:58.355Z,28.90
2022-08-10T17:29:57.672Z,28.80
2022-08-10T17:32:23.125Z,28.80
2022-08-10T17:34:53.452Z,28.70
2022-08-10T17:37:22.944Z,28.70
2022-08-10T17:39:55.273Z,28.70
2022-08-10T17:42:23.656Z,28.60
2022-08-10T17:44:52.916Z,28.60
2022-08-10T17:47:23.665Z,28.60
2022-08-10T17:49:56.914Z,28.60
2022-08-10T17:52:25.208Z,28.50
2022-08-10T17:54:57.169Z,28.50
2022-08-10T17:57:25.358Z,28.50
2022-08-10T17:59:52.906Z,28.50
2022-08-10T18:02:23.331Z,28.40
2022-08-10T18:04:52.126Z,28.40
2022-08-10T18:07:23.438Z,28.40
2022-08-10T18:09:54.947Z,28.30
2022-08-10T18:12:36.284Z,28.30
2022-08-10T18:15:08.420Z,28.20
2022-08-10T18:17:40.917Z,28.20
2022-08-10T18:20:08.836Z,28.10
2022-08-10T18:22:53.627Z,28.10
2022-08-10T18:25:22.364Z,28.10
2022-08-10T18:28:04.373Z,28.00
2022-08-10T18:30:36.229Z,28.00
2022-08-10T18:33:04.653Z,28.00
2022-08-10T18:35:35.101Z,27.90
2022-08-10T18:38:03.118Z,27.90
2022-08-10T18:40:36.251Z,27.90
2022-08-10T18:44:02.790Z,27.80
2022-08-10T18:45:57.127Z,27.80
2022-08-10T18:48:26.997Z,27.80
2022-08-10T18:50:57.582Z,27.70
2022-08-10T18:53:24.434Z,27.70
2022-08-10T18:56:10.115Z,27.70
2022-08-10T18:58:44.392Z,27.60
2022-08-10T19:01:17.714Z,27.60
2022-08-10T19:03:54.068Z,27.50
2022-08-10T19:06:39.956Z,27.50
2022-08-10T19:09:46.062Z,27.40
2022-08-10T19:12:30.222Z,27.40
2022-08-10T19:15:18.687Z,27.30
2022-08-10T19:18:05.811Z,27.20
2022-08-10T19:20:52.165Z,27.20
2022-08-10T19:23:22.197Z,27.20
2022-08-10T19:26:40.849Z,27.10
2022-08-10T19:28:47.364Z,27.10
2022-08-10T19:31:22.685Z,27.00
2022-08-10T19:34:11.912Z,27.00
2022-08-10T19:36:42.384Z,26.90
2022-08-10T19:39:17.808Z,26.80
2022-08-10T19:41:54.291Z,26.70
2022-08-10T19:44:38.701Z,26.70
2022-08-10T19:47:05.725Z,26.60
2022-08-10T19:49:51.890Z,26.60
2022-08-10T19:52:25.070Z,26.50
2022-08-10T19:55:18.304Z,26.40
2022-08-10T19:58:01.204Z,26.40
2022-08-10T20:00:37.341Z,26.30
2022-08-10T20:03:07.511Z,26.30
2022-08-10T20:05:41.074Z,26.20
2022-08-10T20:08:31.814Z,26.20
2022-08-10T20:11:03.536Z,26.10
2022-08-10T20:13:54.304Z,26.00
2022-08-10T20:16:22.824Z,26.00
2022-08-10T20:19:08.336Z,25.90
2022-08-10T20:21:54.742Z,25.90
2022-08-10T20:24:40.577Z,25.80
2022-08-10T20:28:00.537Z,25.70
2022-08-10T20:30:12.944Z,25.70
2022-08-10T20:32:48.897Z,25.60
2022-08-10T20:35:24.309Z,25.60
2022-08-10T20:38:03.415Z,25.50
2022-08-10T20:40:41.900Z,25.50
2022-08-10T20:43:11.786Z,25.50
2022-08-10T20:46:07.596Z,25.40
2022-08-10T20:48:48.914Z,25.40
2022-08-10T20:51:22.934Z,25.30
2022-08-10T20:53:53.805Z,25.30
2022-08-10T20:56:26.620Z,25.20
2022-08-10T20:58:53.477Z,25.20
2022-08-10T21:01:23.048Z,25.10
2022-08-10T21:04:13.517Z,25.10
2022-08-10T21:06:49.683Z,25.10
2022-08-10T21:09:34.634Z,25.00
2022-08-10T21:12:01.515Z,24.90
2022-08-10T21:14:37.226Z,24.90
2022-08-10T21:17:22.864Z,24.90
2022-08-10T21:22:40.675Z,24.80
2022-08-10T21:25:17.584Z,24.80
2022-08-10T21:27:46.916Z,24.70
2022-08-10T21:30:15.666Z,24.70
2022-08-10T21:32:43.946Z,24.70
2022-08-10T21:35:38.386Z,24.60
2022-08-10T21:38:26.636Z,24.50
2022-08-10T21:41:18.100Z,24.50
2022-08-10T21:44:02.490Z,24.40
2022-08-10T21:46:58.955Z,24.30
2022-08-10T21:50:07.620Z,24.30
2022-08-10T21:53:04.305Z,24.20
2022-08-10T21:56:02.563Z,24.10
2022-08-10T21:58:52.928Z,24.00
2022-08-10T22:01:40.722Z,23.90
2022-08-10T22:04:26.409Z,23.80
2022-08-10T22:07:13.852Z,23.70
2022-08-10T22:10:02.264Z,23.60
2022-08-10T22:12:55.452Z,23.60
2022-08-10T22:16:03.919Z,23.50
2022-08-10T22:19:01.364Z,23.50
2022-08-10T22:21:48.538Z,23.40
2022-08-10T22:24:49.226Z,23.40
2022-08-10T22:27:47.375Z,23.30
2022-08-10T22:30:37.168Z,23.40
2022-08-10T22:31:24.473Z,24.80
2022-08-10T22:33:41.686Z,23.30
2022-08-10T22:36:46.135Z,23.30
2022-08-10T22:40:11.474Z,23.20
2022-08-10T22:43:10.428Z,23.20
2022-08-10T22:46:08.908Z,23.10
2022-08-10T22:48:59.406Z,23.10
2022-08-10T22:51:34.585Z,23.00
2022-08-10T22:54:39.681Z,23.00
2022-08-10T22:57:31.064Z,23.00
2022-08-10T22:59:59.144Z,22.90
2022-08-10T23:02:34.295Z,22.90
2022-08-10T23:05:08.471Z,22.80
2022-08-10T23:07:37.554Z,22.80
2022-08-10T23:10:08.376Z,22.80
2022-08-10T23:12:41.800Z,22.70
2022-08-10T23:15:35.460Z,22.70
2022-08-10T23:18:23.235Z,22.60
2022-08-10T23:20:50.864Z,22.60
2022-08-10T23:23:23.698Z,22.50
2022-08-10T23:25:57.016Z,22.50
2022-08-10T23:28:38.830Z,22.50
2022-08-10T23:31:14.645Z,22.40
2022-08-10T23:33:42.838Z,22.40
2022-08-10T23:36:33.976Z,22.40
2022-08-10T23:39:25.752Z,22.30
2022-08-10T23:41:53.853Z,22.30
2022-08-10T23:44:23.142Z,22.30
2022-08-10T23:46:50.266Z,22.20
2022-08-10T23:49:18.925Z,22.10
2022-08-10T23:51:55.827Z,22.10
2022-08-10T23:54:24.289Z,22.10
2022-08-10T23:56:54.434Z,22.10
2022-08-10T23:59:23.054Z,22.00
